Due to severe server failure at the provider, not all demo sites are operational. Will take some days to rebuilt everything.

Demonstration site - Click on the  for more information

This is an optional block. Switch it on/off in your settings-file: $SITE['bannerTop'] = false; or $SITE['bannerBottom'] = false;

You can display ads, any other important text or photo’s using text / html or PHP code.

You can place one or more at the top and or bottom and it can all be different for content / size .



Visit our other weather sites:

Template documentation
and downloads

And another site



Nearby METAR Reports

   
EBAW - Antwerp
Updated: 26-05-2019 09:50
Few Clouds  
Few Clouds  
   Wind: SSW 13 km/h
Wind: SSW 13 km/h
Temperature: 14°C
Dew Point: 11°C
Humidity: 82%
Barometer: 1015 hPa
Clouds: Few Clouds
Visibility: More than 10 km
Cloud details: Few Clouds 1200 ft
EBAW 260750Z 21007KT 180V260 9999 FEW012 14/11 Q1015 NOSIG
EBLG - Liège
Updated: 26-05-2019 09:50
Clear  
Clear  
   Wind: SSW 18.5 km/h
Wind: SSW 18.5 km/h
Temperature: 16°C
Dew Point: 10°C
Humidity: 68%
Barometer: 1016 hPa
Visibility: More than 10 km
Cloud details: Clear ft
EBLG 260750Z 21010KT CAVOK 16/10 Q1016 NOSIG
EBCV - Mons/Bergen
Updated: 26-05-2019 09:55
Mostly Cloudy  
Mostly Cloudy  
   Wind: SW 16.7 km/h
Wind: SW 16.7 km/h
Temperature: 14°C
Dew Point: 12°C
Humidity: 88%
Barometer: 1017 hPa
Clouds: Mostly Cloudy
Visibility: More than 10 km
Cloud details: Partly Cloudy 900 ft,
Mostly Cloudy 8100 ft
EBCV 260755Z AUTO 22009KT 9999 SCT009/// BKN081/// 14/12 Q1017 GRN
EHBK - Maastricht
Updated: 26-05-2019 09:55
Partly Cloudy  
Partly Cloudy  
   Wind: SSW 22.2 km/h
Wind: SSW 22.2 km/h
Temperature: 17°C
Dew Point: 10°C
Humidity: 64%
Barometer: 1015 hPa
Clouds: Partly Cloudy
Visibility: More than 10 km
Cloud details: Partly Cloudy ft
EHBK 260755Z AUTO 21012KT 180V240 9999 NSC 17/10 Q1015 NOSIG
ELLX - Luxemburg
Updated: 26-05-2019 09:50
Clear  
Clear  
   Wind: WSW 14.8 km/h
Wind: WSW 14.8 km/h
Temperature: 15°C
Dew Point: 9°C
Humidity: 68%
Barometer: 1018 hPa
Visibility: More than 10 km
Cloud details: Clear ft
ELLX 260750Z 24008KT 220V280 CAVOK 15/09 Q1018 NOSIG
EBOS - Oostende
Updated: 26-05-2019 09:50
Clear  
Clear  
   Wind: SW 24.1 km/h
Wind: SW 24.1 km/h
Temperature: 18°C
Dew Point: 11°C
Humidity: 64%
Barometer: 1015 hPa
Visibility: More than 10 km
Cloud details: Clear ft
EBOS 260750Z 23013KT CAVOK 18/11 Q1015 NOSIG

Script developed by  Saratoga-weather.org Adapted for the template by  Weerstation Leuven

This is an optional block. Switch it on/off in your settings-file: $SITE['bannerTop'] = false; or $SITE['bannerBottom'] = false;

You can display ads, any other important text or photo’s using text / html or PHP code.

You can place one or more at the top and or bottom and it can all be different for content / size .